sensor_id;sensor_type;location;lat;lon;timestamp;temperature;humidity
14670;DHT22;7423;48.722;9.350;2023-05-03T00:01:40;14.20;99.90
14670;DHT22;7423;48.722;9.350;2023-05-03T00:04:09;14.20;99.90
14670;DHT22;7423;48.722;9.350;2023-05-03T00:06:36;14.20;99.90
14670;DHT22;7423;48.722;9.350;2023-05-03T00:09:03;14.20;99.90
14670;DHT22;7423;48.722;9.350;2023-05-03T00:11:30;14.10;99.90
14670;DHT22;7423;48.722;9.350;2023-05-03T00:13:57;14.00;99.90
14670;DHT22;7423;48.722;9.350;2023-05-03T00:16:23;13.90;99.90
14670;DHT22;7423;48.722;9.350;2023-05-03T00:18:50;13.80;99.90
14670;DHT22;7423;48.722;9.350;2023-05-03T00:21:17;13.90;99.90
14670;DHT22;7423;48.722;9.350;2023-05-03T00:23:44;13.80;99.90
14670;DHT22;7423;48.722;9.350;2023-05-03T00:26:11;13.80;99.90
14670;DHT22;7423;48.722;9.350;2023-05-03T00:28:38;13.80;99.90
14670;DHT22;7423;48.722;9.350;2023-05-03T00:31:09;13.80;99.90
14670;DHT22;7423;48.722;9.350;2023-05-03T00:33:37;13.70;99.90
14670;DHT22;7423;48.722;9.350;2023-05-03T00:36:12;13.70;99.90
14670;DHT22;7423;48.722;9.350;2023-05-03T00:38:40;13.60;99.90
14670;DHT22;7423;48.722;9.350;2023-05-03T00:41:09;13.60;99.90
14670;DHT22;7423;48.722;9.350;2023-05-03T00:43:36;13.50;99.90
14670;DHT22;7423;48.722;9.350;2023-05-03T00:46:05;13.50;99.90
14670;DHT22;7423;48.722;9.350;2023-05-03T00:48:44;13.40;99.90
14670;DHT22;7423;48.722;9.350;2023-05-03T00:51:13;13.40;99.90
14670;DHT22;7423;48.722;9.350;2023-05-03T00:53:44;13.30;99.90
14670;DHT22;7423;48.722;9.350;2023-05-03T00:56:11;13.30;99.90
14670;DHT22;7423;48.722;9.350;2023-05-03T00:58:46;13.30;99.90
14670;DHT22;7423;48.722;9.350;2023-05-03T01:01:13;13.20;99.90
14670;DHT22;7423;48.722;9.350;2023-05-03T01:03:41;13.20;99.90
14670;DHT22;7423;48.722;9.350;2023-05-03T01:06:17;13.70;99.90
14670;DHT22;7423;48.722;9.350;2023-05-03T01:09:20;13.10;99.90
14670;DHT22;7423;48.722;9.350;2023-05-03T01:12:01;13.10;99.90
14670;DHT22;7423;48.722;9.350;2023-05-03T01:14:50;13.10;99.90
14670;DHT22;7423;48.722;9.350;2023-05-03T01:17:38;13.00;99.90
14670;DHT22;7423;48.722;9.350;2023-05-03T01:20:07;13.00;99.90
14670;DHT22;7423;48.722;9.350;2023-05-03T01:22:54;12.90;99.90
14670;DHT22;7423;48.722;9.350;2023-05-03T01:25:25;12.90;99.90
14670;DHT22;7423;48.722;9.350;2023-05-03T01:27:52;12.90;99.90
14670;DHT22;7423;48.722;9.350;2023-05-03T01:30:21;12.80;99.90
14670;DHT22;7423;48.722;9.350;2023-05-03T01:36:12;12.80;99.90
14670;DHT22;7423;48.722;9.350;2023-05-03T01:38:42;12.80;99.90
14670;DHT22;7423;48.722;9.350;2023-05-03T01:41:11;12.80;99.90
14670;DHT22;7423;48.722;9.350;2023-05-03T01:43:39;12.70;99.90
14670;DHT22;7423;48.722;9.350;2023-05-03T01:46:10;12.60;99.90
14670;DHT22;7423;48.722;9.350;2023-05-03T01:48:37;12.80;99.90
14670;DHT22;7423;48.722;9.350;2023-05-03T01:51:04;12.60;99.90
14670;DHT22;7423;48.722;9.350;2023-05-03T01:53:31;12.60;99.90
14670;DHT22;7423;48.722;9.350;2023-05-03T01:55:58;12.50;99.90
14670;DHT22;7423;48.722;9.350;2023-05-03T01:58:24;12.50;99.90
14670;DHT22;7423;48.722;9.350;2023-05-03T02:00:51;12.50;99.90
14670;DHT22;7423;48.722;9.350;2023-05-03T02:03:18;12.40;99.90
14670;DHT22;7423;48.722;9.350;2023-05-03T02:05:47;12.40;99.90
14670;DHT22;7423;48.722;9.350;2023-05-03T02:08:14;12.40;99.90
14670;DHT22;7423;48.722;9.350;2023-05-03T02:10:44;12.30;99.90
14670;DHT22;7423;48.722;9.350;2023-05-03T02:13:11;12.20;99.90
14670;DHT22;7423;48.722;9.350;2023-05-03T02:15:38;12.20;99.90
14670;DHT22;7423;48.722;9.350;2023-05-03T02:18:05;12.20;99.90
14670;DHT22;7423;48.722;9.350;2023-05-03T02:20:33;12.20;99.90
14670;DHT22;7423;48.722;9.350;2023-05-03T02:23:03;12.20;99.90
14670;DHT22;7423;48.722;9.350;2023-05-03T02:25:30;12.20;99.90
14670;DHT22;7423;48.722;9.350;2023-05-03T02:27:57;11.70;99.90
14670;DHT22;7423;48.722;9.350;2023-05-03T02:30:24;12.10;99.90
14670;DHT22;7423;48.722;9.350;2023-05-03T02:32:51;12.10;99.90
14670;DHT22;7423;48.722;9.350;2023-05-03T02:35:18;12.10;99.90
14670;DHT22;7423;48.722;9.350;2023-05-03T02:37:44;12.00;99.90
14670;DHT22;7423;48.722;9.350;2023-05-03T02:40:11;12.00;99.90
14670;DHT22;7423;48.722;9.350;2023-05-03T02:42:39;12.00;99.90
14670;DHT22;7423;48.722;9.350;2023-05-03T02:45:06;12.00;99.90
14670;DHT22;7423;48.722;9.350;2023-05-03T02:47:33;12.00;99.90
14670;DHT22;7423;48.722;9.350;2023-05-03T02:50:00;12.00;99.90
14670;DHT22;7423;48.722;9.350;2023-05-03T02:52:27;11.90;99.90
14670;DHT22;7423;48.722;9.350;2023-05-03T02:54:54;11.90;99.90
14670;DHT22;7423;48.722;9.350;2023-05-03T02:57:21;11.90;99.90
14670;DHT22;7423;48.722;9.350;2023-05-03T02:59:48;11.90;99.90
14670;DHT22;7423;48.722;9.350;2023-05-03T03:02:15;11.90;99.90
14670;DHT22;7423;48.722;9.350;2023-05-03T03:04:42;11.80;99.90
14670;DHT22;7423;48.722;9.350;2023-05-03T03:07:09;11.80;99.90
14670;DHT22;7423;48.722;9.350;2023-05-03T03:09:36;11.80;99.90
14670;DHT22;7423;48.722;9.350;2023-05-03T03:12:03;11.80;99.90
14670;DHT22;7423;48.722;9.350;2023-05-03T03:14:29;11.70;99.90
14670;DHT22;7423;48.722;9.350;2023-05-03T03:16:57;11.80;99.90
14670;DHT22;7423;48.722;9.350;2023-05-03T03:19:24;11.70;99.90
14670;DHT22;7423;48.722;9.350;2023-05-03T03:21:50;11.60;99.90
14670;DHT22;7423;48.722;9.350;2023-05-03T03:24:17;11.60;99.90
14670;DHT22;7423;48.722;9.350;2023-05-03T03:26:44;11.50;99.90
14670;DHT22;7423;48.722;9.350;2023-05-03T03:29:11;11.50;99.90
14670;DHT22;7423;48.722;9.350;2023-05-03T03:31:38;11.50;99.90
14670;DHT22;7423;48.722;9.350;2023-05-03T03:34:05;11.50;99.90
14670;DHT22;7423;48.722;9.350;2023-05-03T03:36:32;11.40;99.90
14670;DHT22;7423;48.722;9.350;2023-05-03T03:38:58;11.40;99.90
14670;DHT22;7423;48.722;9.350;2023-05-03T03:41:25;11.40;99.90
14670;DHT22;7423;48.722;9.350;2023-05-03T03:43:52;11.40;99.90
14670;DHT22;7423;48.722;9.350;2023-05-03T03:46:19;11.40;99.90
14670;DHT22;7423;48.722;9.350;2023-05-03T03:48:46;11.40;99.90
14670;DHT22;7423;48.722;9.350;2023-05-03T03:51:13;11.40;99.90
14670;DHT22;7423;48.722;9.350;2023-05-03T03:53:40;11.30;99.90
14670;DHT22;7423;48.722;9.350;2023-05-03T03:56:07;11.20;99.90
14670;DHT22;7423;48.722;9.350;2023-05-03T03:58:34;11.20;99.90
14670;DHT22;7423;48.722;9.350;2023-05-03T04:01:01;11.20;99.90
14670;DHT22;7423;48.722;9.350;2023-05-03T04:03:28;11.20;99.90
14670;DHT22;7423;48.722;9.350;2023-05-03T04:05:55;11.30;99.90
14670;DHT22;7423;48.722;9.350;2023-05-03T04:08:22;11.20;99.90
14670;DHT22;7423;48.722;9.350;2023-05-03T04:10:49;11.20;99.90
14670;DHT22;7423;48.722;9.350;2023-05-03T04:13:16;11.20;99.90
14670;DHT22;7423;48.722;9.350;2023-05-03T04:15:43;11.20;99.90
14670;DHT22;7423;48.722;9.350;2023-05-03T04:18:10;11.10;99.90
14670;DHT22;7423;48.722;9.350;2023-05-03T04:20:37;11.10;99.90
14670;DHT22;7423;48.722;9.350;2023-05-03T04:23:04;11.10;99.90
14670;DHT22;7423;48.722;9.350;2023-05-03T04:25:30;11.10;99.90
14670;DHT22;7423;48.722;9.350;2023-05-03T04:27:57;11.00;99.90
14670;DHT22;7423;48.722;9.350;2023-05-03T04:30:24;11.10;99.90
14670;DHT22;7423;48.722;9.350;2023-05-03T04:32:51;11.00;99.90
14670;DHT22;7423;48.722;9.350;2023-05-03T04:35:19;11.10;99.90
14670;DHT22;7423;48.722;9.350;2023-05-03T04:37:46;11.10;99.90
14670;DHT22;7423;48.722;9.350;2023-05-03T04:40:13;11.00;99.90
14670;DHT22;7423;48.722;9.350;2023-05-03T04:42:42;11.00;99.90
14670;DHT22;7423;48.722;9.350;2023-05-03T04:45:09;11.00;99.90
14670;DHT22;7423;48.722;9.350;2023-05-03T04:47:36;11.10;99.90
14670;DHT22;7423;48.722;9.350;2023-05-03T04:50:04;11.10;99.90
14670;DHT22;7423;48.722;9.350;2023-05-03T04:52:34;11.10;99.90
14670;DHT22;7423;48.722;9.350;2023-05-03T04:55:01;11.20;99.90
14670;DHT22;7423;48.722;9.350;2023-05-03T04:57:29;11.20;99.90
14670;DHT22;7423;48.722;9.350;2023-05-03T04:59:57;11.20;99.90
14670;DHT22;7423;48.722;9.350;2023-05-03T05:02:24;11.20;99.90
14670;DHT22;7423;48.722;9.350;2023-05-03T05:04:53;11.30;99.90
14670;DHT22;7423;48.722;9.350;2023-05-03T05:07:19;11.30;99.90
14670;DHT22;7423;48.722;9.350;2023-05-03T05:09:46;11.40;99.90
14670;DHT22;7423;48.722;9.350;2023-05-03T05:12:13;11.40;99.90
14670;DHT22;7423;48.722;9.350;2023-05-03T05:14:41;11.40;99.90
14670;DHT22;7423;48.722;9.350;2023-05-03T05:17:08;11.50;99.90
14670;DHT22;7423;48.722;9.350;2023-05-03T05:19:35;11.50;99.90
14670;DHT22;7423;48.722;9.350;2023-05-03T05:22:02;11.50;99.90
14670;DHT22;7423;48.722;9.350;2023-05-03T05:24:30;11.50;99.90
14670;DHT22;7423;48.722;9.350;2023-05-03T05:26:57;11.50;99.90
14670;DHT22;7423;48.722;9.350;2023-05-03T05:29:24;11.50;99.90
14670;DHT22;7423;48.722;9.350;2023-05-03T05:31:51;11.50;99.90
14670;DHT22;7423;48.722;9.350;2023-05-03T05:34:18;11.50;99.90
14670;DHT22;7423;48.722;9.350;2023-05-03T05:36:45;11.50;99.90
14670;DHT22;7423;48.722;9.350;2023-05-03T05:39:12;11.60;99.90
14670;DHT22;7423;48.722;9.350;2023-05-03T05:41:39;11.60;99.90
14670;DHT22;7423;48.722;9.350;2023-05-03T05:44:06;11.70;99.90
14670;DHT22;7423;48.722;9.350;2023-05-03T05:46:33;11.70;99.90
14670;DHT22;7423;48.722;9.350;2023-05-03T05:49:00;11.70;99.90
14670;DHT22;7423;48.722;9.350;2023-05-03T05:51:27;11.80;99.90
14670;DHT22;7423;48.722;9.350;2023-05-03T05:53:56;11.80;99.90
14670;DHT22;7423;48.722;9.350;2023-05-03T05:56:23;11.80;99.90
14670;DHT22;7423;48.722;9.350;2023-05-03T05:58:50;11.90;99.90
14670;DHT22;7423;48.722;9.350;2023-05-03T06:01:17;12.00;99.90
14670;DHT22;7423;48.722;9.350;2023-05-03T06:03:44;12.00;99.90
14670;DHT22;7423;48.722;9.350;2023-05-03T06:06:11;12.00;99.90
14670;DHT22;7423;48.722;9.350;2023-05-03T06:08:38;12.00;99.90
14670;DHT22;7423;48.722;9.350;2023-05-03T06:11:05;12.10;99.90
14670;DHT22;7423;48.722;9.350;2023-05-03T06:13:33;12.10;99.90
14670;DHT22;7423;48.722;9.350;2023-05-03T06:16:04;12.20;99.90
14670;DHT22;7423;48.722;9.350;2023-05-03T06:18:31;12.20;99.90
14670;DHT22;7423;48.722;9.350;2023-05-03T06:20:58;12.20;99.90
14670;DHT22;7423;48.722;9.350;2023-05-03T06:23:24;12.30;99.90
14670;DHT22;7423;48.722;9.350;2023-05-03T06:25:53;12.40;99.90
14670;DHT22;7423;48.722;9.350;2023-05-03T06:28:20;12.40;99.90
14670;DHT22;7423;48.722;9.350;2023-05-03T06:30:50;12.50;99.90
14670;DHT22;7423;48.722;9.350;2023-05-03T06:33:17;12.50;99.90
14670;DHT22;7423;48.722;9.350;2023-05-03T06:35:44;12.50;99.90
14670;DHT22;7423;48.722;9.350;2023-05-03T06:38:12;12.50;99.90
14670;DHT22;7423;48.722;9.350;2023-05-03T06:40:40;12.60;99.90
14670;DHT22;7423;48.722;9.350;2023-05-03T06:43:07;12.60;99.90
14670;DHT22;7423;48.722;9.350;2023-05-03T06:45:33;12.70;99.90
14670;DHT22;7423;48.722;9.350;2023-05-03T06:48:01;12.80;99.90
14670;DHT22;7423;48.722;9.350;2023-05-03T06:50:28;12.80;99.90
14670;DHT22;7423;48.722;9.350;2023-05-03T06:52:55;12.80;99.90
14670;DHT22;7423;48.722;9.350;2023-05-03T06:55:22;12.60;99.90
14670;DHT22;7423;48.722;9.350;2023-05-03T06:57:49;12.70;99.90
14670;DHT22;7423;48.722;9.350;2023-05-03T07:02:53;12.90;99.90
14670;DHT22;7423;48.722;9.350;2023-05-03T07:05:20;13.00;99.90
14670;DHT22;7423;48.722;9.350;2023-05-03T07:07:47;13.10;99.90
14670;DHT22;7423;48.722;9.350;2023-05-03T07:10:14;13.20;99.90
14670;DHT22;7423;48.722;9.350;2023-05-03T07:12:41;13.20;99.90
14670;DHT22;7423;48.722;9.350;2023-05-03T07:15:09;13.30;99.90
14670;DHT22;7423;48.722;9.350;2023-05-03T07:17:36;13.30;99.90
14670;DHT22;7423;48.722;9.350;2023-05-03T07:20:03;13.40;99.90
14670;DHT22;7423;48.722;9.350;2023-05-03T07:22:31;13.50;99.90
14670;DHT22;7423;48.722;9.350;2023-05-03T07:24:57;13.50;99.90
14670;DHT22;7423;48.722;9.350;2023-05-03T07:27:25;13.50;99.90
14670;DHT22;7423;48.722;9.350;2023-05-03T07:29:52;13.60;99.90
14670;DHT22;7423;48.722;9.350;2023-05-03T07:32:20;13.60;99.90
14670;DHT22;7423;48.722;9.350;2023-05-03T07:34:47;13.60;99.90
14670;DHT22;7423;48.722;9.350;2023-05-03T07:37:14;13.60;99.90
14670;DHT22;7423;48.722;9.350;2023-05-03T07:39:41;13.60;99.90
14670;DHT22;7423;48.722;9.350;2023-05-03T07:42:08;13.60;99.90
14670;DHT22;7423;48.722;9.350;2023-05-03T07:44:35;13.70;99.90
14670;DHT22;7423;48.722;9.350;2023-05-03T07:47:02;13.80;99.90
14670;DHT22;7423;48.722;9.350;2023-05-03T07:49:29;13.80;99.90
14670;DHT22;7423;48.722;9.350;2023-05-03T07:52:02;13.90;99.90
14670;DHT22;7423;48.722;9.350;2023-05-03T07:54:29;14.00;99.90
14670;DHT22;7423;48.722;9.350;2023-05-03T07:56:56;14.00;99.90
14670;DHT22;7423;48.722;9.350;2023-05-03T07:59:23;14.10;99.90
14670;DHT22;7423;48.722;9.350;2023-05-03T08:01:50;14.10;99.90
14670;DHT22;7423;48.722;9.350;2023-05-03T08:04:17;14.10;99.90
14670;DHT22;7423;48.722;9.350;2023-05-03T08:06:44;14.10;99.90
14670;DHT22;7423;48.722;9.350;2023-05-03T08:09:11;14.20;99.90
14670;DHT22;7423;48.722;9.350;2023-05-03T08:11:39;14.20;99.90
14670;DHT22;7423;48.722;9.350;2023-05-03T08:14:10;14.30;99.90
14670;DHT22;7423;48.722;9.350;2023-05-03T08:16:38;14.30;99.90
14670;DHT22;7423;48.722;9.350;2023-05-03T08:19:05;15.30;99.90
14670;DHT22;7423;48.722;9.350;2023-05-03T08:21:33;14.40;99.90
14670;DHT22;7423;48.722;9.350;2023-05-03T08:24:01;14.50;99.90
14670;DHT22;7423;48.722;9.350;2023-05-03T08:26:28;14.60;99.90
14670;DHT22;7423;48.722;9.350;2023-05-03T08:28:56;14.60;99.90
14670;DHT22;7423;48.722;9.350;2023-05-03T08:31:23;14.60;99.90
14670;DHT22;7423;48.722;9.350;2023-05-03T08:33:50;14.70;99.90
14670;DHT22;7423;48.722;9.350;2023-05-03T08:36:17;14.70;99.90
14670;DHT22;7423;48.722;9.350;2023-05-03T08:38:44;14.80;99.90
14670;DHT22;7423;48.722;9.350;2023-05-03T08:41:21;14.80;99.90
14670;DHT22;7423;48.722;9.350;2023-05-03T08:43:57;14.90;99.90
14670;DHT22;7423;48.722;9.350;2023-05-03T08:46:27;14.90;99.90
14670;DHT22;7423;48.722;9.350;2023-05-03T08:48:54;15.00;99.90
14670;DHT22;7423;48.722;9.350;2023-05-03T08:51:22;15.00;99.90
14670;DHT22;7423;48.722;9.350;2023-05-03T08:53:50;15.10;99.90
14670;DHT22;7423;48.722;9.350;2023-05-03T08:56:32;14.90;99.90
14670;DHT22;7423;48.722;9.350;2023-05-03T08:59:00;15.10;99.90
14670;DHT22;7423;48.722;9.350;2023-05-03T09:01:35;15.10;99.90
14670;DHT22;7423;48.722;9.350;2023-05-03T09:04:02;15.10;99.90
14670;DHT22;7423;48.722;9.350;2023-05-03T09:06:30;15.20;99.90
14670;DHT22;7423;48.722;9.350;2023-05-03T09:09:01;15.20;99.90
14670;DHT22;7423;48.722;9.350;2023-05-03T09:11:36;15.40;99.90
14670;DHT22;7423;48.722;9.350;2023-05-03T09:14:09;15.60;99.90
14670;DHT22;7423;48.722;9.350;2023-05-03T09:16:38;15.70;99.90
14670;DHT22;7423;48.722;9.350;2023-05-03T09:19:09;15.80;99.90
14670;DHT22;7423;48.722;9.350;2023-05-03T09:21:39;15.90;99.90
14670;DHT22;7423;48.722;9.350;2023-05-03T09:24:17;15.90;99.90
14670;DHT22;7423;48.722;9.350;2023-05-03T09:26:48;16.10;99.90
14670;DHT22;7423;48.722;9.350;2023-05-03T09:29:29;16.10;99.90
14670;DHT22;7423;48.722;9.350;2023-05-03T09:32:04;16.20;99.90
14670;DHT22;7423;48.722;9.350;2023-05-03T09:34:32;16.30;99.90
14670;DHT22;7423;48.722;9.350;2023-05-03T09:37:00;16.40;99.90
14670;DHT22;7423;48.722;9.350;2023-05-03T09:39:27;16.50;99.90
14670;DHT22;7423;48.722;9.350;2023-05-03T09:41:54;16.40;99.90
14670;DHT22;7423;48.722;9.350;2023-05-03T09:44:44;16.60;99.90
14670;DHT22;7423;48.722;9.350;2023-05-03T09:47:17;16.60;99.90
14670;DHT22;7423;48.722;9.350;2023-05-03T09:49:44;16.60;99.90
14670;DHT22;7423;48.722;9.350;2023-05-03T09:52:11;16.70;99.90
14670;DHT22;7423;48.722;9.350;2023-05-03T09:54:39;16.80;99.90
14670;DHT22;7423;48.722;9.350;2023-05-03T09:57:07;16.90;99.90
14670;DHT22;7423;48.722;9.350;2023-05-03T09:59:36;16.80;99.90
14670;DHT22;7423;48.722;9.350;2023-05-03T10:02:06;16.90;99.90
14670;DHT22;7423;48.722;9.350;2023-05-03T10:04:46;16.80;99.90
14670;DHT22;7423;48.722;9.350;2023-05-03T10:07:17;16.80;99.90
14670;DHT22;7423;48.722;9.350;2023-05-03T10:09:48;16.80;99.90
14670;DHT22;7423;48.722;9.350;2023-05-03T10:12:15;16.80;99.90
14670;DHT22;7423;48.722;9.350;2023-05-03T10:14:46;16.90;99.90
14670;DHT22;7423;48.722;9.350;2023-05-03T10:23:09;17.10;99.90
14670;DHT22;7423;48.722;9.350;2023-05-03T10:25:39;17.10;99.90
14670;DHT22;7423;48.722;9.350;2023-05-03T10:28:08;17.20;99.90
14670;DHT22;7423;48.722;9.350;2023-05-03T10:30:37;17.20;99.90
14670;DHT22;7423;48.722;9.350;2023-05-03T10:33:30;17.20;99.90
14670;DHT22;7423;48.722;9.350;2023-05-03T10:35:58;17.30;99.90
14670;DHT22;7423;48.722;9.350;2023-05-03T10:38:27;17.40;99.90
14670;DHT22;7423;48.722;9.350;2023-05-03T10:40:55;17.40;99.90
14670;DHT22;7423;48.722;9.350;2023-05-03T10:46:05;17.50;99.90
14670;DHT22;7423;48.722;9.350;2023-05-03T10:48:33;17.60;99.90
14670;DHT22;7423;48.722;9.350;2023-05-03T10:51:30;17.60;99.90
14670;DHT22;7423;48.722;9.350;2023-05-03T10:54:02;17.60;99.90
14670;DHT22;7423;48.722;9.350;2023-05-03T10:56:29;17.70;99.90
14670;DHT22;7423;48.722;9.350;2023-05-03T10:58:56;17.80;99.90
14670;DHT22;7423;48.722;9.350;2023-05-03T11:01:26;17.90;99.90
14670;DHT22;7423;48.722;9.350;2023-05-03T11:04:01;18.00;99.90
14670;DHT22;7423;48.722;9.350;2023-05-03T11:06:35;18.30;99.90
14670;DHT22;7423;48.722;9.350;2023-05-03T11:09:04;18.60;99.90
14670;DHT22;7423;48.722;9.350;2023-05-03T11:11:34;18.80;99.90
14670;DHT22;7423;48.722;9.350;2023-05-03T11:14:02;19.00;99.90
14670;DHT22;7423;48.722;9.350;2023-05-03T11:16:29;19.10;99.90
14670;DHT22;7423;48.722;9.350;2023-05-03T11:18:56;19.40;99.90
14670;DHT22;7423;48.722;9.350;2023-05-03T11:21:25;19.70;99.90
14670;DHT22;7423;48.722;9.350;2023-05-03T11:23:53;20.50;99.90
14670;DHT22;7423;48.722;9.350;2023-05-03T11:26:19;21.10;99.90
14670;DHT22;7423;48.722;9.350;2023-05-03T11:28:52;21.30;99.90
14670;DHT22;7423;48.722;9.350;2023-05-03T11:31:21;21.30;99.90
14670;DHT22;7423;48.722;9.350;2023-05-03T11:33:49;21.10;99.90
14670;DHT22;7423;48.722;9.350;2023-05-03T11:36:16;20.80;99.90
14670;DHT22;7423;48.722;9.350;2023-05-03T11:38:44;20.70;99.90
14670;DHT22;7423;48.722;9.350;2023-05-03T11:41:16;21.20;99.90
14670;DHT22;7423;48.722;9.350;2023-05-03T11:43:44;21.70;99.90
14670;DHT22;7423;48.722;9.350;2023-05-03T11:46:14;22.40;99.90
14670;DHT22;7423;48.722;9.350;2023-05-03T11:48:43;23.00;99.70
14670;DHT22;7423;48.722;9.350;2023-05-03T11:51:11;23.60;98.40
14670;DHT22;7423;48.722;9.350;2023-05-03T11:53:40;24.00;97.20
14670;DHT22;7423;48.722;9.350;2023-05-03T11:56:12;24.00;97.10
14670;DHT22;7423;48.722;9.350;2023-05-03T11:58:53;24.20;96.70
14670;DHT22;7423;48.722;9.350;2023-05-03T12:01:27;24.20;96.40
14670;DHT22;7423;48.722;9.350;2023-05-03T12:03:59;24.00;96.30
14670;DHT22;7423;48.722;9.350;2023-05-03T12:06:30;23.90;96.60
14670;DHT22;7423;48.722;9.350;2023-05-03T12:09:01;23.80;96.20
14670;DHT22;7423;48.722;9.350;2023-05-03T12:11:38;23.70;96.20
14670;DHT22;7423;48.722;9.350;2023-05-03T12:14:06;23.50;95.90
14670;DHT22;7423;48.722;9.350;2023-05-03T12:16:47;23.50;95.80
14670;DHT22;7423;48.722;9.350;2023-05-03T12:19:27;23.30;95.50
14670;DHT22;7423;48.722;9.350;2023-05-03T12:21:58;23.20;95.60
14670;DHT22;7423;48.722;9.350;2023-05-03T12:24:45;22.90;96.00
14670;DHT22;7423;48.722;9.350;2023-05-03T12:27:15;22.60;96.60
14670;DHT22;7423;48.722;9.350;2023-05-03T12:29:45;22.40;96.60
14670;DHT22;7423;48.722;9.350;2023-05-03T12:32:27;22.20;97.00
14670;DHT22;7423;48.722;9.350;2023-05-03T12:34:57;22.00;97.10
14670;DHT22;7423;48.722;9.350;2023-05-03T12:37:27;21.80;97.20
14670;DHT22;7423;48.722;9.350;2023-05-03T12:39:58;21.60;97.40
14670;DHT22;7423;48.722;9.350;2023-05-03T12:42:45;21.50;97.50
14670;DHT22;7423;48.722;9.350;2023-05-03T12:45:12;21.30;97.80
14670;DHT22;7423;48.722;9.350;2023-05-03T12:47:40;21.20;97.60
14670;DHT22;7423;48.722;9.350;2023-05-03T12:50:10;21.20;97.30
14670;DHT22;7423;48.722;9.350;2023-05-03T12:52:44;21.10;97.20
14670;DHT22;7423;48.722;9.350;2023-05-03T12:55:11;21.00;97.50
14670;DHT22;7423;48.722;9.350;2023-05-03T12:57:44;20.90;97.40
14670;DHT22;7423;48.722;9.350;2023-05-03T13:00:26;20.80;97.50
14670;DHT22;7423;48.722;9.350;2023-05-03T13:03:01;20.70;97.30
14670;DHT22;7423;48.722;9.350;2023-05-03T13:05:32;20.70;97.60
14670;DHT22;7423;48.722;9.350;2023-05-03T13:08:02;20.70;96.90
14670;DHT22;7423;48.722;9.350;2023-05-03T13:10:32;20.60;97.70
14670;DHT22;7423;48.722;9.350;2023-05-03T13:12:59;20.60;97.80
14670;DHT22;7423;48.722;9.350;2023-05-03T13:15:26;20.60;98.00
14670;DHT22;7423;48.722;9.350;2023-05-03T13:17:54;20.50;97.90
14670;DHT22;7423;48.722;9.350;2023-05-03T13:20:21;20.40;98.10
14670;DHT22;7423;48.722;9.350;2023-05-03T13:22:48;20.40;98.10
14670;DHT22;7423;48.722;9.350;2023-05-03T13:25:15;20.30;98.30
14670;DHT22;7423;48.722;9.350;2023-05-03T13:27:42;20.30;98.30
14670;DHT22;7423;48.722;9.350;2023-05-03T13:30:09;20.20;97.80
14670;DHT22;7423;48.722;9.350;2023-05-03T13:32:36;20.30;98.20
14670;DHT22;7423;48.722;9.350;2023-05-03T13:35:04;20.30;97.90
14670;DHT22;7423;48.722;9.350;2023-05-03T13:37:31;20.30;96.90
14670;DHT22;7423;48.722;9.350;2023-05-03T13:39:58;20.20;96.40
14670;DHT22;7423;48.722;9.350;2023-05-03T13:42:25;20.20;97.00
14670;DHT22;7423;48.722;9.350;2023-05-03T13:44:53;20.20;97.00
14670;DHT22;7423;48.722;9.350;2023-05-03T13:47:20;20.30;97.20
14670;DHT22;7423;48.722;9.350;2023-05-03T13:49:47;20.30;97.30
14670;DHT22;7423;48.722;9.350;2023-05-03T13:52:14;20.40;97.40
14670;DHT22;7423;48.722;9.350;2023-05-03T13:54:41;20.30;97.60
14670;DHT22;7423;48.722;9.350;2023-05-03T13:57:08;20.30;97.50
14670;DHT22;7423;48.722;9.350;2023-05-03T13:59:35;20.30;97.50
14670;DHT22;7423;48.722;9.350;2023-05-03T14:02:02;20.20;97.40
14670;DHT22;7423;48.722;9.350;2023-05-03T14:04:29;20.20;97.10
14670;DHT22;7423;48.722;9.350;2023-05-03T14:06:57;20.20;97.20
14670;DHT22;7423;48.722;9.350;2023-05-03T14:09:28;20.20;97.10
14670;DHT22;7423;48.722;9.350;2023-05-03T14:11:56;20.20;97.00
14670;DHT22;7423;48.722;9.350;2023-05-03T14:14:25;20.20;96.60
14670;DHT22;7423;48.722;9.350;2023-05-03T14:16:52;20.30;97.10
14670;DHT22;7423;48.722;9.350;2023-05-03T14:19:19;20.30;97.40
14670;DHT22;7423;48.722;9.350;2023-05-03T14:21:47;20.30;96.80
14670;DHT22;7423;48.722;9.350;2023-05-03T14:24:15;20.30;97.10
14670;DHT22;7423;48.722;9.350;2023-05-03T14:26:42;20.40;97.40
14670;DHT22;7423;48.722;9.350;2023-05-03T14:29:09;20.40;97.50
14670;DHT22;7423;48.722;9.350;2023-05-03T14:31:35;20.40;97.30
14670;DHT22;7423;48.722;9.350;2023-05-03T14:34:02;20.40;96.60
14670;DHT22;7423;48.722;9.350;2023-05-03T14:36:29;20.60;96.40
14670;DHT22;7423;48.722;9.350;2023-05-03T14:39:02;21.50;96.40
14670;DHT22;7423;48.722;9.350;2023-05-03T14:41:30;20.50;96.20
14670;DHT22;7423;48.722;9.350;2023-05-03T14:43:58;20.50;96.10
14670;DHT22;7423;48.722;9.350;2023-05-03T14:46:25;20.50;95.80
14670;DHT22;7423;48.722;9.350;2023-05-03T14:48:52;21.30;95.80
14670;DHT22;7423;48.722;9.350;2023-05-03T14:51:19;20.50;95.60
14670;DHT22;7423;48.722;9.350;2023-05-03T14:53:46;20.60;95.60
14670;DHT22;7423;48.722;9.350;2023-05-03T14:56:13;20.60;95.50
14670;DHT22;7423;48.722;9.350;2023-05-03T14:58:40;20.60;95.10
14670;DHT22;7423;48.722;9.350;2023-05-03T15:01:07;20.50;95.00
14670;DHT22;7423;48.722;9.350;2023-05-03T15:03:34;20.50;95.00
14670;DHT22;7423;48.722;9.350;2023-05-03T15:06:01;20.60;95.50
14670;DHT22;7423;48.722;9.350;2023-05-03T15:08:28;20.60;95.20
14670;DHT22;7423;48.722;9.350;2023-05-03T15:10:55;20.60;95.00
14670;DHT22;7423;48.722;9.350;2023-05-03T15:13:22;20.70;94.60
14670;DHT22;7423;48.722;9.350;2023-05-03T15:15:50;20.70;94.80
14670;DHT22;7423;48.722;9.350;2023-05-03T15:18:17;20.70;94.40
14670;DHT22;7423;48.722;9.350;2023-05-03T15:20:45;20.70;94.60
14670;DHT22;7423;48.722;9.350;2023-05-03T15:23:13;20.80;94.70
14670;DHT22;7423;48.722;9.350;2023-05-03T15:25:40;20.80;94.00
14670;DHT22;7423;48.722;9.350;2023-05-03T15:28:07;20.80;93.70
14670;DHT22;7423;48.722;9.350;2023-05-03T15:30:33;20.90;93.70
14670;DHT22;7423;48.722;9.350;2023-05-03T15:33:00;20.90;93.60
14670;DHT22;7423;48.722;9.350;2023-05-03T15:35:27;20.90;93.30
14670;DHT22;7423;48.722;9.350;2023-05-03T15:37:54;21.00;92.90
14670;DHT22;7423;48.722;9.350;2023-05-03T15:40:21;21.10;92.50
14670;DHT22;7423;48.722;9.350;2023-05-03T15:42:52;21.10;92.70
14670;DHT22;7423;48.722;9.350;2023-05-03T15:45:19;21.10;93.10
14670;DHT22;7423;48.722;9.350;2023-05-03T15:47:48;21.10;93.30
14670;DHT22;7423;48.722;9.350;2023-05-03T15:50:15;21.10;93.10
14670;DHT22;7423;48.722;9.350;2023-05-03T15:52:42;21.10;93.50
14670;DHT22;7423;48.722;9.350;2023-05-03T15:55:09;21.10;93.90
14670;DHT22;7423;48.722;9.350;2023-05-03T15:57:36;21.10;93.40
14670;DHT22;7423;48.722;9.350;2023-05-03T16:00:06;21.20;93.10
14670;DHT22;7423;48.722;9.350;2023-05-03T16:02:34;21.20;93.20
14670;DHT22;7423;48.722;9.350;2023-05-03T16:05:01;21.20;93.90
14670;DHT22;7423;48.722;9.350;2023-05-03T16:07:28;21.20;93.70
14670;DHT22;7423;48.722;9.350;2023-05-03T16:09:55;21.20;93.90